APL Coral — WDF6832 — position and weather

sailwx.info

Track history (hours):
 
Tides and Currents Weather Stations Pressure Air Temp Water Temp Dewpoint Dewpoint Depression Visibility Wind Speed Wind Dir Waves Ship Positions

APL Coral

Owner: APL Maritime Ltd., Bethesda, MD. More information available from US FCC via Universal Licensing System and Coast Guard Vessel Documentation Center.

Last reported at 2015-May-30 05:32 UTC. Time now 2015-May-30 06:26 UTC.
Position N 38°27' W 017°39'.

Length 275 m; draft 12.5 m.

Type: Cargo ship. MMSI: 367478280.

Date/timePositionNaut miles runAvg speedWind from/ knotsBaromVisibWave heightAir tempDewpointWater temp
2015-May-30 05:32N 38°27' W 017°39'1616.6
2015-May-30 04:33N 38°31' W 017°59'1916.7
2015-May-30 03:27N 38°36' W 018°22'1716.7
2015-May-30 02:26N 38°40' W 018°43'3815.4
2015-May-30 00:00N 38°48' W 019°30'17515.3 090 / 161027.010.8 1.521.017.818.0
2015-May-29 12:32N 39°30' W 023°09'1413.9
2015-May-29 11:31N 39°33' W 023°27'5914.5
2015-May-29 07:28N 39°44' W 024°42'1716.3
2015-May-29 06:27N 39°47' W 025°03'4716.2
2015-May-29 03:33N 39°55' W 026°03'2216.3
2015-May-29 02:12N 39°59' W 026°32'4616.4
2015-May-28 23:25N 40°07' W 027°30'1416.2
2015-May-28 22:32N 40°09' W 027°49'3816.6
2015-May-28 20:14N 40°15' W 028°38'1516.3
2015-May-28 19:19N 40°17' W 028°58'1316.4
2015-May-28 18:33N 40°18' W 029°14'2115.8
2015-May-28 17:11N 40°22' W 029°42'914.1
2015-May-28 16:33N 40°23' W 029°53'1414.0
2015-May-28 15:31N 40°25' W 030°12'1313.9
2015-May-28 14:33N 40°27' W 030°29'4614.1
2015-May-28 11:20N 40°32' W 031°29'1814.0
2015-May-28 10:04N 40°34' W 031°52'34315.5
2015-May-27 12:00N 40°54' W 039°24'   080 / 51036.010.8 1.020.014.920.0
2015-May-20 13:06N 34°46' W 075°19'712.6
2015-May-20 12:31N 34°40' W 075°25'2020.1
2015-May-20 11:32N 34°26' W 075°42'4019.2
2015-May-20 09:27N 33°58' W 076°17'  
Track history (hours):
 
Tides and Currents Weather Stations Pressure Air Temp Water Temp Dewpoint Dewpoint Depression Visibility Wind Speed Wind Dir Waves Ship Positions

APL Coral

Owner: APL Maritime Ltd., Bethesda, MD. More information available from US FCC via Universal Licensing System and Coast Guard Vessel Documentation Center.

Last reported at 2015-May-30 05:32 UTC. Time now 2015-May-30 06:26 UTC.
Position N 38°27' W 017°39'.

Length 275 m; draft 12.5 m.

Type: Cargo ship. MMSI: 367478280.

Date/timePositionNaut miles runAvg speedWind from/ knotsBaromVisibWave heightAir tempDewpointWater temp
2015-May-30 05:32N 38°27' W 017°39'1616.6
2015-May-30 04:33N 38°31' W 017°59'1916.7
2015-May-30 03:27N 38°36' W 018°22'1716.7
2015-May-30 02:26N 38°40' W 018°43'3815.4
2015-May-30 00:00N 38°48' W 019°30'17515.3 090 / 161027.010.8 1.521.017.818.0
2015-May-29 12:32N 39°30' W 023°09'1413.9
2015-May-29 11:31N 39°33' W 023°27'5914.5
2015-May-29 07:28N 39°44' W 024°42'1716.3
2015-May-29 06:27N 39°47' W 025°03'4716.2
2015-May-29 03:33N 39°55' W 026°03'2216.3
2015-May-29 02:12N 39°59' W 026°32'4616.4
2015-May-28 23:25N 40°07' W 027°30'1416.2
2015-May-28 22:32N 40°09' W 027°49'3816.6
2015-May-28 20:14N 40°15' W 028°38'1516.3
2015-May-28 19:19N 40°17' W 028°58'1316.4
2015-May-28 18:33N 40°18' W 029°14'2115.8
2015-May-28 17:11N 40°22' W 029°42'914.1
2015-May-28 16:33N 40°23' W 029°53'1414.0
2015-May-28 15:31N 40°25' W 030°12'1313.9
2015-May-28 14:33N 40°27' W 030°29'4614.1
2015-May-28 11:20N 40°32' W 031°29'1814.0
2015-May-28 10:04N 40°34' W 031°52'34315.5
2015-May-27 12:00N 40°54' W 039°24'   080 / 51036.010.8 1.020.014.920.0
2015-May-20 13:06N 34°46' W 075°19'712.6
2015-May-20 12:31N 34°40' W 075°25'2020.1
2015-May-20 11:32N 34°26' W 075°42'4019.2
2015-May-20 09:27N 33°58' W 076°17'  

Dump ship's entire track history